sensor_id;sensor_type;location;lat;lon;timestamp;pressure;altitude;pressure_sealevel;temperature;humidity
26865;BME280;40618;51.166;10.322;2023-04-21T00:02:05;97331.78;;;6.23;79.87
26865;BME280;40618;51.166;10.322;2023-04-21T00:04:31;97330.06;;;6.24;79.36
26865;BME280;40618;51.166;10.322;2023-04-21T00:06:57;97321.50;;;6.23;79.17
26865;BME280;40618;51.166;10.322;2023-04-21T00:09:26;97319.78;;;6.24;79.66
26865;BME280;40618;51.166;10.322;2023-04-21T00:11:52;97324.09;;;6.23;79.81
26865;BME280;40618;51.166;10.322;2023-04-21T00:14:18;97323.22;;;6.23;79.82
26865;BME280;40618;51.166;10.322;2023-04-21T00:16:44;97321.50;;;6.23;79.49
26865;BME280;40618;51.166;10.322;2023-04-21T00:19:10;97325.81;;;6.21;79.86
26865;BME280;40618;51.166;10.322;2023-04-21T00:21:38;97324.97;;;6.21;79.86
26865;BME280;40618;51.166;10.322;2023-04-21T00:24:05;97336.09;;;6.21;79.55
26865;BME280;40618;51.166;10.322;2023-04-21T00:26:30;97333.53;;;6.21;80.10
26865;BME280;40618;51.166;10.322;2023-04-21T00:28:56;97330.09;;;6.22;79.51
26865;BME280;40618;51.166;10.322;2023-04-21T00:31:22;97322.38;;;6.22;79.99
26865;BME280;40618;51.166;10.322;2023-04-21T00:33:47;97326.66;;;6.22;79.67
26865;BME280;40618;51.166;10.322;2023-04-21T00:36:13;97318.94;;;6.22;79.59
26865;BME280;40618;51.166;10.322;2023-04-21T00:38:38;97324.91;;;6.24;80.18
26865;BME280;40618;51.166;10.322;2023-04-21T00:41:04;97330.06;;;6.24;79.57
26865;BME280;40618;51.166;10.322;2023-04-21T00:43:30;97325.75;;;6.24;80.23
26865;BME280;40618;51.166;10.322;2023-04-21T00:45:55;97334.38;;;6.23;79.72
26865;BME280;40618;51.166;10.322;2023-04-21T00:48:21;97332.66;;;6.22;80.42
26865;BME280;40618;51.166;10.322;2023-04-21T00:50:47;97334.38;;;6.23;80.48
26865;BME280;40618;51.166;10.322;2023-04-21T00:53:13;97325.75;;;6.24;80.12
26865;BME280;40618;51.166;10.322;2023-04-21T00:55:40;97336.06;;;6.23;80.02
26865;BME280;40618;51.166;10.322;2023-04-21T00:58:05;97322.38;;;6.22;80.11
26865;BME280;40618;51.166;10.322;2023-04-21T01:00:31;97329.22;;;6.22;79.98
26865;BME280;40618;51.166;10.322;2023-04-21T01:02:58;97326.66;;;6.22;79.96
26865;BME280;40618;51.166;10.322;2023-04-21T01:05:25;97319.84;;;6.21;79.98
26865;BME280;40618;51.166;10.322;2023-04-21T01:07:51;97318.13;;;6.20;79.87
26865;BME280;40618;51.166;10.322;2023-04-21T01:10:17;97318.19;;;6.17;79.87
26865;BME280;40618;51.166;10.322;2023-04-21T01:12:44;97319.88;;;6.16;80.14
26865;BME280;40618;51.166;10.322;2023-04-21T01:15:15;97317.34;;;6.15;80.28
26865;BME280;40618;51.166;10.322;2023-04-21T01:17:42;97309.63;;;6.15;80.26
26865;BME280;40618;51.166;10.322;2023-04-21T01:20:11;97311.31;;;6.16;79.95
26865;BME280;40618;51.166;10.322;2023-04-21T01:22:39;97316.44;;;6.17;80.07
26865;BME280;40618;51.166;10.322;2023-04-21T01:25:11;97313.91;;;6.16;80.23
26865;BME280;40618;51.166;10.322;2023-04-21T01:27:37;97316.50;;;6.14;79.86
26865;BME280;40618;51.166;10.322;2023-04-21T01:30:04;97305.38;;;6.12;79.87
26865;BME280;40618;51.166;10.322;2023-04-21T01:32:31;97307.06;;;6.13;80.00
26865;BME280;40618;51.166;10.322;2023-04-21T01:34:58;97309.69;;;6.12;80.35
26865;BME280;40618;51.166;10.322;2023-04-21T01:37:27;97305.41;;;6.10;80.23
26865;BME280;40618;51.166;10.322;2023-04-21T01:39:57;97302.00;;;6.08;80.22
26865;BME280;40618;51.166;10.322;2023-04-21T01:42:26;97308.03;;;6.07;80.49
26865;BME280;40618;51.166;10.322;2023-04-21T01:44:54;97312.31;;;6.05;79.85
26865;BME280;40618;51.166;10.322;2023-04-21T01:47:22;97317.47;;;6.05;80.23
26865;BME280;40618;51.166;10.322;2023-04-21T01:49:48;97322.59;;;6.05;80.29
26865;BME280;40618;51.166;10.322;2023-04-21T01:52:14;97309.75;;;6.05;80.75
26865;BME280;40618;51.166;10.322;2023-04-21T01:54:40;97313.22;;;6.04;80.28
26865;BME280;40618;51.166;10.322;2023-04-21T01:57:06;97316.63;;;6.05;80.56
26865;BME280;40618;51.166;10.322;2023-04-21T01:59:31;97318.34;;;6.04;80.64
26865;BME280;40618;51.166;10.322;2023-04-21T02:01:57;97312.38;;;6.02;80.66
26865;BME280;40618;51.166;10.322;2023-04-21T02:04:23;97313.25;;;6.03;80.57
26865;BME280;40618;51.166;10.322;2023-04-21T02:06:48;97311.56;;;6.00;80.13
26865;BME280;40618;51.166;10.322;2023-04-21T02:09:14;97309.00;;;6.00;80.45
26865;BME280;40618;51.166;10.322;2023-04-21T02:11:40;97312.41;;;5.99;80.50
26865;BME280;40618;51.166;10.322;2023-04-21T02:14:05;97313.25;;;6.00;80.35
26865;BME280;40618;51.166;10.322;2023-04-21T02:16:31;97314.16;;;5.99;80.56
26865;BME280;40618;51.166;10.322;2023-04-21T02:18:57;97323.56;;;5.98;80.74
26865;BME280;40618;51.166;10.322;2023-04-21T02:21:24;97315.84;;;5.97;80.43
26865;BME280;40618;51.166;10.322;2023-04-21T02:23:51;97317.59;;;5.96;80.69
26865;BME280;40618;51.166;10.322;2023-04-21T02:26:17;97313.31;;;5.95;80.51
26865;BME280;40618;51.166;10.322;2023-04-21T02:28:44;97312.47;;;5.95;80.74
26865;BME280;40618;51.166;10.322;2023-04-21T02:31:09;97309.88;;;5.93;80.55
26865;BME280;40618;51.166;10.322;2023-04-21T02:33:35;97313.34;;;5.92;80.56
26865;BME280;40618;51.166;10.322;2023-04-21T02:36:01;97309.06;;;5.91;80.51
26865;BME280;40618;51.166;10.322;2023-04-21T02:38:27;97319.34;;;5.91;80.85
26865;BME280;40618;51.166;10.322;2023-04-21T02:40:52;97312.47;;;5.91;80.81
26865;BME280;40618;51.166;10.322;2023-04-21T02:43:18;97315.09;;;5.90;80.34
26865;BME280;40618;51.166;10.322;2023-04-21T02:45:43;97320.28;;;5.87;80.42
26865;BME280;40618;51.166;10.322;2023-04-21T02:48:10;97313.41;;;5.87;80.55
26865;BME280;40618;51.166;10.322;2023-04-21T02:50:35;97321.09;;;5.87;80.70
26865;BME280;40618;51.166;10.322;2023-04-21T02:53:02;97310.00;;;5.87;80.54
26865;BME280;40618;51.166;10.322;2023-04-21T02:55:27;97322.88;;;5.85;80.52
26865;BME280;40618;51.166;10.322;2023-04-21T02:57:53;97313.50;;;5.81;80.62
26865;BME280;40618;51.166;10.322;2023-04-21T03:00:19;97307.50;;;5.81;81.04
26865;BME280;40618;51.166;10.322;2023-04-21T03:02:45;97312.63;;;5.81;80.72
26865;BME280;40618;51.166;10.322;2023-04-21T03:05:10;97310.94;;;5.81;80.67
26865;BME280;40618;51.166;10.322;2023-04-21T03:07:37;97320.38;;;5.79;80.88
26865;BME280;40618;51.166;10.322;2023-04-21T03:10:03;97311.78;;;5.80;80.92
26865;BME280;40618;51.166;10.322;2023-04-21T03:12:30;97312.66;;;5.79;80.68
26865;BME280;40618;51.166;10.322;2023-04-21T03:14:56;97311.81;;;5.79;80.66
26865;BME280;40618;51.166;10.322;2023-04-21T03:17:23;97307.53;;;5.78;80.89
26865;BME280;40618;51.166;10.322;2023-04-21T03:19:49;97302.41;;;5.78;81.08
26865;BME280;40618;51.166;10.322;2023-04-21T03:22:14;97310.97;;;5.76;80.67
26865;BME280;40618;51.166;10.322;2023-04-21T03:24:40;97306.69;;;5.77;80.87
26865;BME280;40618;51.166;10.322;2023-04-21T03:27:06;97308.41;;;5.76;81.19
26865;BME280;40618;51.166;10.322;2023-04-21T03:29:31;97304.13;;;5.77;81.25
26865;BME280;40618;51.166;10.322;2023-04-21T03:31:57;97306.69;;;5.77;80.90
26865;BME280;40618;51.166;10.322;2023-04-21T03:34:22;97307.53;;;5.78;80.90
26865;BME280;40618;51.166;10.322;2023-04-21T03:36:48;97307.53;;;5.78;81.54
26865;BME280;40618;51.166;10.322;2023-04-21T03:39:13;97307.53;;;5.78;81.31
26865;BME280;40618;51.166;10.322;2023-04-21T03:41:39;97305.81;;;5.78;80.99
26865;BME280;40618;51.166;10.322;2023-04-21T03:44:05;97306.69;;;5.79;81.43
26865;BME280;40618;51.166;10.322;2023-04-21T03:46:30;97306.69;;;5.79;80.97
26865;BME280;40618;51.166;10.322;2023-04-21T03:48:56;97305.81;;;5.78;80.95
26865;BME280;40618;51.166;10.322;2023-04-21T03:51:22;97304.16;;;5.75;81.08
26865;BME280;40618;51.166;10.322;2023-04-21T03:53:47;97307.56;;;5.76;80.85
26865;BME280;40618;51.166;10.322;2023-04-21T03:56:13;97312.69;;;5.76;81.06
26865;BME280;40618;51.166;10.322;2023-04-21T03:58:38;97311.88;;;5.75;81.25
26865;BME280;40618;51.166;10.322;2023-04-21T04:01:05;97313.53;;;5.76;81.19
26865;BME280;40618;51.166;10.322;2023-04-21T04:03:31;97305.84;;;5.75;81.22
26865;BME280;40618;51.166;10.322;2023-04-21T04:05:57;97304.16;;;5.75;81.31
26865;BME280;40618;51.166;10.322;2023-04-21T04:08:23;97316.13;;;5.75;81.50
26865;BME280;40618;51.166;10.322;2023-04-21T04:10:48;97310.19;;;5.73;81.42
26865;BME280;40618;51.166;10.322;2023-04-21T04:13:14;97310.16;;;5.74;81.34
26865;BME280;40618;51.166;10.322;2023-04-21T04:15:39;97312.72;;;5.74;81.14
26865;BME280;40618;51.166;10.322;2023-04-21T04:18:05;97310.97;;;5.76;81.40
26865;BME280;40618;51.166;10.322;2023-04-21T04:20:31;97309.28;;;5.77;81.53
26865;BME280;40618;51.166;10.322;2023-04-21T04:22:56;97306.69;;;5.79;81.23
26865;BME280;40618;51.166;10.322;2023-04-21T04:25:22;97304.13;;;5.77;81.48
26865;BME280;40618;51.166;10.322;2023-04-21T04:27:47;97304.97;;;5.78;81.47
26865;BME280;40618;51.166;10.322;2023-04-21T04:30:14;97300.66;;;5.78;81.34
26865;BME280;40618;51.166;10.322;2023-04-21T04:32:40;97304.94;;;5.79;81.10
26865;BME280;40618;51.166;10.322;2023-04-21T04:35:07;97309.19;;;5.82;81.51
26865;BME280;40618;51.166;10.322;2023-04-21T04:37:37;97300.63;;;5.83;81.64
26865;BME280;40618;51.166;10.322;2023-04-21T04:40:04;97305.75;;;5.84;81.43
26865;BME280;40618;51.166;10.322;2023-04-21T04:42:34;97305.75;;;5.83;81.54
26865;BME280;40618;51.166;10.322;2023-04-21T04:45:00;97300.66;;;5.81;81.55
26865;BME280;40618;51.166;10.322;2023-04-21T04:47:27;97309.19;;;5.82;81.50
26865;BME280;40618;51.166;10.322;2023-04-21T04:49:53;97313.44;;;5.84;81.68
26865;BME280;40618;51.166;10.322;2023-04-21T04:52:19;97308.31;;;5.84;81.50
26865;BME280;40618;51.166;10.322;2023-04-21T04:54:44;97313.44;;;5.86;81.60
26865;BME280;40618;51.166;10.322;2023-04-21T04:57:10;97309.13;;;5.86;81.59
26865;BME280;40618;51.166;10.322;2023-04-21T04:59:35;97309.13;;;5.88;81.33
26865;BME280;40618;51.166;10.322;2023-04-21T05:02:01;97311.69;;;5.88;81.87
26865;BME280;40618;51.166;10.322;2023-04-21T05:04:28;97313.34;;;5.90;81.99
26865;BME280;40618;51.166;10.322;2023-04-21T05:06:53;97315.94;;;5.92;81.78
26865;BME280;40618;51.166;10.322;2023-04-21T05:09:19;97313.34;;;5.93;81.87
26865;BME280;40618;51.166;10.322;2023-04-21T05:11:45;97319.28;;;5.96;81.91
26865;BME280;40618;51.166;10.322;2023-04-21T05:14:10;97316.69;;;5.97;82.23
26865;BME280;40618;51.166;10.322;2023-04-21T05:16:36;97315.84;;;5.98;82.17
26865;BME280;40618;51.166;10.322;2023-04-21T05:19:02;97315.84;;;5.98;81.57
26865;BME280;40618;51.166;10.322;2023-04-21T05:21:28;97313.25;;;6.00;82.03
26865;BME280;40618;51.166;10.322;2023-04-21T05:23:56;97312.41;;;6.01;81.83
26865;BME280;40618;51.166;10.322;2023-04-21T05:26:24;97309.81;;;6.02;82.30
26865;BME280;40618;51.166;10.322;2023-04-21T05:28:54;97308.06;;;6.04;81.97
26865;BME280;40618;51.166;10.322;2023-04-21T05:31:21;97323.47;;;6.06;82.23
26865;BME280;40618;51.166;10.322;2023-04-21T05:33:47;97321.75;;;6.06;82.11
26865;BME280;40618;51.166;10.322;2023-04-21T05:36:13;97325.16;;;6.08;81.88
26865;BME280;40618;51.166;10.322;2023-04-21T05:38:39;97329.41;;;6.09;81.98
26865;BME280;40618;51.166;10.322;2023-04-21T05:41:05;97318.25;;;6.10;82.34
26865;BME280;40618;51.166;10.322;2023-04-21T05:43:30;97325.97;;;6.10;81.75
26865;BME280;40618;51.166;10.322;2023-04-21T05:46:02;97326.81;;;6.13;82.16
26865;BME280;40618;51.166;10.322;2023-04-21T05:48:33;97322.50;;;6.13;82.10
26865;BME280;40618;51.166;10.322;2023-04-21T05:51:12;97322.47;;;6.15;82.02
26865;BME280;40618;51.166;10.322;2023-04-21T05:53:40;97329.31;;;6.16;82.22
26865;BME280;40618;51.166;10.322;2023-04-21T05:56:11;97326.72;;;6.17;82.15
26865;BME280;40618;51.166;10.322;2023-04-21T05:58:37;97327.56;;;6.18;82.38
26865;BME280;40618;51.166;10.322;2023-04-21T06:01:04;97327.56;;;6.18;82.41
26865;BME280;40618;51.166;10.322;2023-04-21T06:03:33;97319.84;;;6.21;82.00
26865;BME280;40618;51.166;10.322;2023-04-21T06:06:00;97315.53;;;6.21;82.27
26865;BME280;40618;51.166;10.322;2023-04-21T06:08:26;97328.34;;;6.23;82.13
26865;BME280;40618;51.166;10.322;2023-04-21T06:10:52;97326.63;;;6.25;82.58
26865;BME280;40618;51.166;10.322;2023-04-21T06:13:17;97318.88;;;6.26;82.33
26865;BME280;40618;51.166;10.322;2023-04-21T06:15:43;97329.16;;;6.28;82.32
26865;BME280;40618;51.166;10.322;2023-04-21T06:18:09;97319.69;;;6.30;82.71
26865;BME280;40618;51.166;10.322;2023-04-21T06:20:34;97315.38;;;6.31;82.66
26865;BME280;40618;51.166;10.322;2023-04-21T06:23:00;97312.81;;;6.31;82.51
26865;BME280;40618;51.166;10.322;2023-04-21T06:25:26;97317.06;;;6.33;82.35
26865;BME280;40618;51.166;10.322;2023-04-21T06:27:51;97319.59;;;6.36;82.76
26865;BME280;40618;51.166;10.322;2023-04-21T06:30:17;97314.38;;;6.39;82.42
26865;BME280;40618;51.166;10.322;2023-04-21T06:32:42;97315.22;;;6.41;82.43
26865;BME280;40618;51.166;10.322;2023-04-21T06:35:12;97305.72;;;6.47;82.44
26865;BME280;40618;51.166;10.322;2023-04-21T06:37:42;97315.97;;;6.50;82.20
26865;BME280;40618;51.166;10.322;2023-04-21T06:40:08;97311.59;;;6.53;82.29
26865;BME280;40618;51.166;10.322;2023-04-21T06:42:36;97308.13;;;6.56;82.74
26865;BME280;40618;51.166;10.322;2023-04-21T06:45:02;97316.69;;;6.58;82.90
26865;BME280;40618;51.166;10.322;2023-04-21T06:47:27;97310.66;;;6.59;82.54
26865;BME280;40618;51.166;10.322;2023-04-21T06:49:53;97308.88;;;6.63;82.64
26865;BME280;40618;51.166;10.322;2023-04-21T06:52:18;97301.97;;;6.66;82.30
26865;BME280;40618;51.166;10.322;2023-04-21T06:54:44;97312.19;;;6.69;82.65
26865;BME280;40618;51.166;10.322;2023-04-21T06:57:10;97313.00;;;6.73;82.35
26865;BME280;40618;51.166;10.322;2023-04-21T06:59:35;97311.25;;;6.75;82.86
26865;BME280;40618;51.166;10.322;2023-04-21T07:02:01;97311.97;;;6.82;82.57
26865;BME280;40618;51.166;10.322;2023-04-21T07:04:26;97313.63;;;6.86;82.58
26865;BME280;40618;51.166;10.322;2023-04-21T07:06:54;97316.09;;;6.92;82.80
26865;BME280;40618;51.166;10.322;2023-04-21T07:09:20;97313.38;;;7.00;82.72
26865;BME280;40618;51.166;10.322;2023-04-21T07:11:46;97315.78;;;7.09;83.00
26865;BME280;40618;51.166;10.322;2023-04-21T07:14:11;97324.16;;;7.20;82.80
26865;BME280;40618;51.166;10.322;2023-04-21T07:16:37;97324.91;;;7.27;82.55
26865;BME280;40618;51.166;10.322;2023-04-21T07:19:03;97325.59;;;7.35;82.42
26865;BME280;40618;51.166;10.322;2023-04-21T07:21:29;97326.31;;;7.42;82.32
26865;BME280;40618;51.166;10.322;2023-04-21T07:23:56;97319.47;;;7.42;82.82
26865;BME280;40618;51.166;10.322;2023-04-21T07:26:25;97311.75;;;7.42;82.72
26865;BME280;40618;51.166;10.322;2023-04-21T07:28:50;97310.81;;;7.47;82.23
26865;BME280;40618;51.166;10.322;2023-04-21T07:31:17;97314.97;;;7.52;81.90
26865;BME280;40618;51.166;10.322;2023-04-21T07:33:42;97306.22;;;7.59;82.35
26865;BME280;40618;51.166;10.322;2023-04-21T07:36:08;97311.25;;;7.67;82.89
26865;BME280;40618;51.166;10.322;2023-04-21T07:38:34;97313.69;;;7.73;82.02
26865;BME280;40618;51.166;10.322;2023-04-21T07:40:59;97314.31;;;7.85;81.90
26865;BME280;40618;51.166;10.322;2023-04-21T07:43:25;97304.53;;;7.99;82.56
26865;BME280;40618;51.166;10.322;2023-04-21T07:45:51;97294.81;;;8.10;82.11
26865;BME280;40618;51.166;10.322;2023-04-21T07:48:17;97299.69;;;8.24;81.86
26865;BME280;40618;51.166;10.322;2023-04-21T07:50:43;97308.06;;;8.34;82.21
26865;BME280;40618;51.166;10.322;2023-04-21T07:53:09;97294.03;;;8.44;82.65
26865;BME280;40618;51.166;10.322;2023-04-21T07:55:34;97305.75;;;8.59;81.98
26865;BME280;40618;51.166;10.322;2023-04-21T07:58:03;97299.53;;;8.68;82.66
26865;BME280;40618;51.166;10.322;2023-04-21T08:00:29;97291.53;;;8.77;81.58
26865;BME280;40618;51.166;10.322;2023-04-21T08:02:54;97297.16;;;8.93;82.27
26865;BME280;40618;51.166;10.322;2023-04-21T08:05:20;97299.41;;;9.06;82.66
26865;BME280;40618;51.166;10.322;2023-04-21T08:07:46;97292.22;;;9.17;81.86
26865;BME280;40618;51.166;10.322;2023-04-21T08:10:11;97299.84;;;9.22;82.07
26865;BME280;40618;51.166;10.322;2023-04-21T08:12:37;97287.63;;;9.28;82.01
26865;BME280;40618;51.166;10.322;2023-04-21T08:15:03;97289.19;;;9.34;81.71
26865;BME280;40618;51.166;10.322;2023-04-21T08:17:31;97289.00;;;9.40;81.44
26865;BME280;40618;51.166;10.322;2023-04-21T08:19:57;97291.38;;;9.48;81.42
26865;BME280;40618;51.166;10.322;2023-04-21T08:22:23;97294.50;;;9.59;81.24
26865;BME280;40618;51.166;10.322;2023-04-21T08:24:48;97291.66;;;9.69;81.73
26865;BME280;40618;51.166;10.322;2023-04-21T08:27:14;97288.94;;;9.73;81.17
26865;BME280;40618;51.166;10.322;2023-04-21T08:29:40;97290.41;;;9.82;81.54
26865;BME280;40618;51.166;10.322;2023-04-21T08:32:05;97293.47;;;9.95;81.59
26865;BME280;40618;51.166;10.322;2023-04-21T08:34:31;97286.19;;;10.08;81.71
26865;BME280;40618;51.166;10.322;2023-04-21T08:36:57;97281.69;;;10.14;81.21
26865;BME280;40618;51.166;10.322;2023-04-21T08:39:22;97279.59;;;10.26;81.06
26865;BME280;40618;51.166;10.322;2023-04-21T08:41:48;97275.00;;;10.36;80.80
26865;BME280;40618;51.166;10.322;2023-04-21T08:44:15;97267.00;;;10.43;81.27
26865;BME280;40618;51.166;10.322;2023-04-21T08:46:44;97274.34;;;10.56;81.01
26865;BME280;40618;51.166;10.322;2023-04-21T08:49:11;97267.75;;;10.72;81.10
26865;BME280;40618;51.166;10.322;2023-04-21T08:51:39;97277.66;;;10.86;80.86
26865;BME280;40618;51.166;10.322;2023-04-21T08:54:04;97271.28;;;10.96;80.60
26865;BME280;40618;51.166;10.322;2023-04-21T08:56:30;97275.16;;;11.08;80.71
26865;BME280;40618;51.166;10.322;2023-04-21T08:58:56;97276.66;;;11.15;80.65
26865;BME280;40618;51.166;10.322;2023-04-21T09:01:21;97267.69;;;11.24;80.57
26865;BME280;40618;51.166;10.322;2023-04-21T09:03:47;97264.09;;;11.28;80.27
26865;BME280;40618;51.166;10.322;2023-04-21T09:06:12;97270.66;;;11.39;80.08
26865;BME280;40618;51.166;10.322;2023-04-21T09:08:41;97281.41;;;11.51;80.23
26865;BME280;40618;51.166;10.322;2023-04-21T09:11:12;97277.28;;;11.69;80.00
26865;BME280;40618;51.166;10.322;2023-04-21T09:13:38;97269.84;;;11.84;79.89
26865;BME280;40618;51.166;10.322;2023-04-21T09:16:14;97272.09;;;11.93;79.59
26865;BME280;40618;51.166;10.322;2023-04-21T09:18:43;97265.66;;;12.04;79.11
26865;BME280;40618;51.166;10.322;2023-04-21T09:21:11;97281.03;;;12.08;79.43
26865;BME280;40618;51.166;10.322;2023-04-21T09:26:10;97275.25;;;12.24;78.86
26865;BME280;40618;51.166;10.322;2023-04-21T09:28:39;97278.22;;;12.14;78.79
26865;BME280;40618;51.166;10.322;2023-04-21T09:31:18;97274.81;;;12.12;78.80
26865;BME280;40618;51.166;10.322;2023-04-21T09:33:50;97276.22;;;12.21;78.68
26865;BME280;40618;51.166;10.322;2023-04-21T09:36:22;97265.41;;;12.32;78.89
26865;BME280;40618;51.166;10.322;2023-04-21T09:39:00;97267.19;;;12.52;78.98
26865;BME280;40618;51.166;10.322;2023-04-21T09:41:29;97264.22;;;12.61;78.19
26865;BME280;40618;51.166;10.322;2023-04-21T09:43:56;97261.44;;;12.66;78.14
26865;BME280;40618;51.166;10.322;2023-04-21T09:46:28;97269.63;;;12.77;78.12
26865;BME280;40618;51.166;10.322;2023-04-21T09:48:59;97265.84;;;12.84;78.21
26865;BME280;40618;51.166;10.322;2023-04-21T09:51:26;97260.94;;;12.99;78.03
26865;BME280;40618;51.166;10.322;2023-04-21T09:53:57;97257.41;;;13.20;78.08
26865;BME280;40618;51.166;10.322;2023-04-21T09:56:24;97255.16;;;13.32;77.47
26865;BME280;40618;51.166;10.322;2023-04-21T09:58:57;97251.00;;;13.48;77.45
26865;BME280;40618;51.166;10.322;2023-04-21T10:01:26;97246.03;;;13.63;76.84
26865;BME280;40618;51.166;10.322;2023-04-21T10:03:53;97239.38;;;13.75;76.85
26865;BME280;40618;51.166;10.322;2023-04-21T10:06:20;97238.38;;;13.96;76.74
26865;BME280;40618;51.166;10.322;2023-04-21T10:08:48;97240.34;;;14.10;76.77
26865;BME280;40618;51.166;10.322;2023-04-21T10:11:15;97238.91;;;14.22;76.66
26865;BME280;40618;51.166;10.322;2023-04-21T10:13:42;97233.25;;;14.31;76.07
26865;BME280;40618;51.166;10.322;2023-04-21T10:16:09;97234.56;;;14.40;76.09
26865;BME280;40618;51.166;10.322;2023-04-21T10:18:42;97242.47;;;14.56;76.00
26865;BME280;40618;51.166;10.322;2023-04-21T10:21:17;97236.28;;;14.59;75.70
26865;BME280;40618;51.166;10.322;2023-04-21T10:23:47;97225.69;;;14.62;75.14
26865;BME280;40618;51.166;10.322;2023-04-21T10:26:23;97229.28;;;14.59;75.04
26865;BME280;40618;51.166;10.322;2023-04-21T10:29:03;97225.72;;;14.79;75.24
26865;BME280;40618;51.166;10.322;2023-04-21T10:31:50;97226.16;;;15.05;75.18
26865;BME280;40618;51.166;10.322;2023-04-21T10:34:19;97226.16;;;15.21;74.40
26865;BME280;40618;51.166;10.322;2023-04-21T10:39:35;97227.78;;;15.23;74.33
26865;BME280;40618;51.166;10.322;2023-04-21T10:44:50;97219.78;;;15.27;73.77
26865;BME280;40618;51.166;10.322;2023-04-21T10:47:47;97216.88;;;15.33;73.42
26865;BME280;40618;51.166;10.322;2023-04-21T10:50:21;97214.88;;;15.38;73.24
26865;BME280;40618;51.166;10.322;2023-04-21T10:53:11;97199.72;;;15.45;72.86
26865;BME280;40618;51.166;10.322;2023-04-21T10:55:38;97198.38;;;15.53;72.93
26865;BME280;40618;51.166;10.322;2023-04-21T10:58:05;97192.97;;;15.56;72.35
26865;BME280;40618;51.166;10.322;2023-04-21T11:00:35;97198.38;;;15.53;72.24
26865;BME280;40618;51.166;10.322;2023-04-21T11:03:07;97190.81;;;15.49;72.28
26865;BME280;40618;51.166;10.322;2023-04-21T11:05:37;97191.63;;;15.49;72.06
26865;BME280;40618;51.166;10.322;2023-04-21T11:08:14;97198.78;;;15.62;72.22
26865;BME280;40618;51.166;10.322;2023-04-21T11:10:58;97179.16;;;15.70;71.75
26865;BME280;40618;51.166;10.322;2023-04-21T11:13:25;97200.06;;;15.70;71.65
26865;BME280;40618;51.166;10.322;2023-04-21T11:18:36;97201.56;;;15.74;71.76
26865;BME280;40618;51.166;10.322;2023-04-21T11:21:14;97199.81;;;15.75;70.95
26865;BME280;40618;51.166;10.322;2023-04-21T11:23:52;97191.66;;;15.65;71.26
26865;BME280;40618;51.166;10.322;2023-04-21T11:26:35;97191.78;;;15.62;70.87
26865;BME280;40618;51.166;10.322;2023-04-21T11:29:07;97193.16;;;15.53;70.57
26865;BME280;40618;51.166;10.322;2023-04-21T11:31:35;97185.75;;;15.62;70.57
26865;BME280;40618;51.166;10.322;2023-04-21T11:34:02;97183.13;;;15.62;70.25
26865;BME280;40618;51.166;10.322;2023-04-21T11:36:35;97184.16;;;15.59;70.76
26865;BME280;40618;51.166;10.322;2023-04-21T11:39:07;97179.00;;;15.57;70.05
26865;BME280;40618;51.166;10.322;2023-04-21T11:41:35;97178.69;;;15.48;70.47
26865;BME280;40618;51.166;10.322;2023-04-21T11:44:06;97188.59;;;15.41;70.37
26865;BME280;40618;51.166;10.322;2023-04-21T11:46:32;97179.84;;;15.42;70.22
26865;BME280;40618;51.166;10.322;2023-04-21T11:49:12;97176.81;;;15.50;70.22
26865;BME280;40618;51.166;10.322;2023-04-21T11:51:40;97178.09;;;15.59;70.49
26865;BME280;40618;51.166;10.322;2023-04-21T11:54:09;97188.78;;;15.70;70.22
26865;BME280;40618;51.166;10.322;2023-04-21T11:56:37;97167.56;;;15.76;69.67
26865;BME280;40618;51.166;10.322;2023-04-21T11:59:12;97177.16;;;15.76;69.26
26865;BME280;40618;51.166;10.322;2023-04-21T12:01:46;97168.50;;;15.75;69.29
26865;BME280;40618;51.166;10.322;2023-04-21T12:04:18;97177.84;;;15.79;69.72
26865;BME280;40618;51.166;10.322;2023-04-21T12:06:46;97157.72;;;15.81;69.53
26865;BME280;40618;51.166;10.322;2023-04-21T12:09:20;97159.56;;;15.79;69.14
26865;BME280;40618;51.166;10.322;2023-04-21T12:11:48;97162.88;;;15.83;69.37
26865;BME280;40618;51.166;10.322;2023-04-21T12:14:15;97154.97;;;15.84;69.05
26865;BME280;40618;51.166;10.322;2023-04-21T12:16:41;97167.84;;;15.87;68.87
26865;BME280;40618;51.166;10.322;2023-04-21T12:19:07;97150.84;;;15.80;68.60
26865;BME280;40618;51.166;10.322;2023-04-21T12:21:36;97152.59;;;15.80;68.64
26865;BME280;40618;51.166;10.322;2023-04-21T12:24:05;97149.13;;;15.79;68.58
26865;BME280;40618;51.166;10.322;2023-04-21T12:26:30;97135.91;;;15.82;68.32
26865;BME280;40618;51.166;10.322;2023-04-21T12:28:56;97149.56;;;15.87;68.42
26865;BME280;40618;51.166;10.322;2023-04-21T12:31:24;97141.63;;;15.89;68.10
26865;BME280;40618;51.166;10.322;2023-04-21T12:33:50;97140.63;;;15.92;68.08
26865;BME280;40618;51.166;10.322;2023-04-21T12:36:15;97139.03;;;15.89;67.98
26865;BME280;40618;51.166;10.322;2023-04-21T12:38:41;97136.13;;;15.94;68.45
26865;BME280;40618;51.166;10.322;2023-04-21T12:41:08;97135.63;;;16.03;67.89
26865;BME280;40618;51.166;10.322;2023-04-21T12:43:34;97133.88;;;16.03;68.10
26865;BME280;40618;51.166;10.322;2023-04-21T12:45:59;97141.13;;;15.98;67.53
26865;BME280;40618;51.166;10.322;2023-04-21T12:48:25;97133.00;;;16.03;67.82
26865;BME280;40618;51.166;10.322;2023-04-21T12:50:50;97131.31;;;16.02;67.22
26865;BME280;40618;51.166;10.322;2023-04-21T12:53:16;97140.25;;;15.98;67.31
26865;BME280;40618;51.166;10.322;2023-04-21T12:55:42;97134.13;;;15.99;67.52
26865;BME280;40618;51.166;10.322;2023-04-21T12:58:07;97137.41;;;16.02;67.46
26865;BME280;40618;51.166;10.322;2023-04-21T13:00:33;97139.84;;;16.05;67.42
26865;BME280;40618;51.166;10.322;2023-04-21T13:03:00;97135.81;;;16.00;67.27
26865;BME280;40618;51.166;10.322;2023-04-21T13:05:26;97135.38;;;16.07;66.96
26865;BME280;40618;51.166;10.322;2023-04-21T13:07:52;97124.31;;;16.18;67.28
26865;BME280;40618;51.166;10.322;2023-04-21T13:10:18;97127.22;;;16.28;66.55